sensor_id;sensor_type;location;lat;lon;timestamp;P1;durP1;ratioP1;P2;durP2;ratioP2
3700;SDS011;1866;48.374;10.766;2022-12-10T00:01:45;133.45;;;29.30;;
3700;SDS011;1866;48.374;10.766;2022-12-10T00:04:13;136.75;;;30.63;;
3700;SDS011;1866;48.374;10.766;2022-12-10T00:06:40;135.00;;;29.23;;
3700;SDS011;1866;48.374;10.766;2022-12-10T00:09:13;136.43;;;28.70;;
3700;SDS011;1866;48.374;10.766;2022-12-10T00:11:40;134.27;;;29.27;;
3700;SDS011;1866;48.374;10.766;2022-12-10T00:14:08;133.93;;;27.05;;
3700;SDS011;1866;48.374;10.766;2022-12-10T00:16:37;127.25;;;26.00;;
3700;SDS011;1866;48.374;10.766;2022-12-10T00:19:04;132.48;;;27.05;;
3700;SDS011;1866;48.374;10.766;2022-12-10T00:21:32;129.00;;;27.05;;
3700;SDS011;1866;48.374;10.766;2022-12-10T00:24:00;133.70;;;27.10;;
3700;SDS011;1866;48.374;10.766;2022-12-10T00:26:29;130.18;;;25.90;;
3700;SDS011;1866;48.374;10.766;2022-12-10T00:28:57;128.68;;;27.00;;
3700;SDS011;1866;48.374;10.766;2022-12-10T00:31:27;126.35;;;25.67;;
3700;SDS011;1866;48.374;10.766;2022-12-10T00:33:58;125.88;;;26.42;;
3700;SDS011;1866;48.374;10.766;2022-12-10T00:36:27;128.90;;;27.35;;
3700;SDS011;1866;48.374;10.766;2022-12-10T00:38:55;131.15;;;25.05;;
3700;SDS011;1866;48.374;10.766;2022-12-10T00:41:22;120.90;;;24.60;;
3700;SDS011;1866;48.374;10.766;2022-12-10T00:43:49;125.88;;;25.40;;
3700;SDS011;1866;48.374;10.766;2022-12-10T00:46:16;123.78;;;23.90;;
3700;SDS011;1866;48.374;10.766;2022-12-10T00:48:44;129.40;;;26.33;;
3700;SDS011;1866;48.374;10.766;2022-12-10T00:51:14;129.07;;;25.60;;
3700;SDS011;1866;48.374;10.766;2022-12-10T00:53:43;126.75;;;24.65;;
3700;SDS011;1866;48.374;10.766;2022-12-10T00:56:11;125.80;;;25.15;;
3700;SDS011;1866;48.374;10.766;2022-12-10T00:58:40;130.23;;;24.20;;
3700;SDS011;1866;48.374;10.766;2022-12-10T01:01:08;124.78;;;24.65;;
3700;SDS011;1866;48.374;10.766;2022-12-10T01:03:36;123.85;;;25.05;;
3700;SDS011;1866;48.374;10.766;2022-12-10T01:06:10;128.13;;;24.05;;
3700;SDS011;1866;48.374;10.766;2022-12-10T01:08:40;121.03;;;24.48;;
3700;SDS011;1866;48.374;10.766;2022-12-10T01:11:08;121.95;;;23.38;;
3700;SDS011;1866;48.374;10.766;2022-12-10T01:13:36;124.47;;;24.42;;
3700;SDS011;1866;48.374;10.766;2022-12-10T01:16:05;124.72;;;25.05;;
3700;SDS011;1866;48.374;10.766;2022-12-10T01:18:33;126.88;;;24.55;;
3700;SDS011;1866;48.374;10.766;2022-12-10T01:21:01;123.45;;;24.25;;
3700;SDS011;1866;48.374;10.766;2022-12-10T01:23:31;128.00;;;24.48;;
3700;SDS011;1866;48.374;10.766;2022-12-10T01:25:59;123.40;;;23.48;;
3700;SDS011;1866;48.374;10.766;2022-12-10T01:28:28;125.28;;;24.27;;
3700;SDS011;1866;48.374;10.766;2022-12-10T01:30:59;120.20;;;24.33;;
3700;SDS011;1866;48.374;10.766;2022-12-10T01:33:27;119.35;;;23.60;;
3700;SDS011;1866;48.374;10.766;2022-12-10T01:35:54;124.40;;;24.40;;
3700;SDS011;1866;48.374;10.766;2022-12-10T01:38:21;124.05;;;25.83;;
3700;SDS011;1866;48.374;10.766;2022-12-10T01:40:49;125.15;;;25.88;;
3700;SDS011;1866;48.374;10.766;2022-12-10T01:43:16;121.50;;;24.90;;
3700;SDS011;1866;48.374;10.766;2022-12-10T01:45:43;123.38;;;25.00;;
3700;SDS011;1866;48.374;10.766;2022-12-10T01:48:11;123.45;;;25.30;;
3700;SDS011;1866;48.374;10.766;2022-12-10T01:50:38;120.35;;;24.10;;
3700;SDS011;1866;48.374;10.766;2022-12-10T01:53:05;122.72;;;25.70;;
3700;SDS011;1866;48.374;10.766;2022-12-10T01:55:41;125.13;;;25.85;;
3700;SDS011;1866;48.374;10.766;2022-12-10T01:58:11;124.72;;;24.90;;
3700;SDS011;1866;48.374;10.766;2022-12-10T02:00:41;119.93;;;23.50;;
3700;SDS011;1866;48.374;10.766;2022-12-10T02:03:15;120.90;;;25.20;;
3700;SDS011;1866;48.374;10.766;2022-12-10T02:05:49;121.25;;;25.02;;
3700;SDS011;1866;48.374;10.766;2022-12-10T02:08:25;123.13;;;25.60;;
3700;SDS011;1866;48.374;10.766;2022-12-10T02:10:59;124.57;;;24.88;;
3700;SDS011;1866;48.374;10.766;2022-12-10T02:13:36;124.82;;;25.42;;
3700;SDS011;1866;48.374;10.766;2022-12-10T02:16:08;126.20;;;24.23;;
3700;SDS011;1866;48.374;10.766;2022-12-10T02:18:39;117.45;;;22.30;;
3700;SDS011;1866;48.374;10.766;2022-12-10T02:21:22;127.88;;;24.73;;
3700;SDS011;1866;48.374;10.766;2022-12-10T02:23:54;121.63;;;23.90;;
3700;SDS011;1866;48.374;10.766;2022-12-10T02:26:26;122.10;;;25.60;;
3700;SDS011;1866;48.374;10.766;2022-12-10T02:29:05;125.47;;;25.05;;
3700;SDS011;1866;48.374;10.766;2022-12-10T02:31:38;121.50;;;25.33;;
3700;SDS011;1866;48.374;10.766;2022-12-10T02:34:08;125.88;;;25.98;;
3700;SDS011;1866;48.374;10.766;2022-12-10T02:36:37;120.55;;;25.23;;
3700;SDS011;1866;48.374;10.766;2022-12-10T02:39:09;121.40;;;25.00;;
3700;SDS011;1866;48.374;10.766;2022-12-10T02:41:40;119.55;;;24.75;;
3700;SDS011;1866;48.374;10.766;2022-12-10T02:44:11;118.57;;;25.38;;
3700;SDS011;1866;48.374;10.766;2022-12-10T02:46:41;121.03;;;24.02;;
3700;SDS011;1866;48.374;10.766;2022-12-10T02:49:09;118.60;;;24.85;;
3700;SDS011;1866;48.374;10.766;2022-12-10T02:51:39;117.97;;;24.38;;
3700;SDS011;1866;48.374;10.766;2022-12-10T02:54:06;116.82;;;24.80;;
3700;SDS011;1866;48.374;10.766;2022-12-10T02:56:49;120.82;;;25.25;;
3700;SDS011;1866;48.374;10.766;2022-12-10T02:59:24;118.30;;;25.55;;
3700;SDS011;1866;48.374;10.766;2022-12-10T03:02:00;121.40;;;25.95;;
3700;SDS011;1866;48.374;10.766;2022-12-10T03:04:33;122.38;;;26.58;;
3700;SDS011;1866;48.374;10.766;2022-12-10T03:07:06;120.72;;;25.73;;
3700;SDS011;1866;48.374;10.766;2022-12-10T03:09:37;119.63;;;25.30;;
3700;SDS011;1866;48.374;10.766;2022-12-10T03:12:13;119.68;;;25.38;;
3700;SDS011;1866;48.374;10.766;2022-12-10T03:14:44;119.05;;;25.10;;
3700;SDS011;1866;48.374;10.766;2022-12-10T03:17:11;122.90;;;24.50;;
3700;SDS011;1866;48.374;10.766;2022-12-10T03:19:41;125.57;;;25.70;;
3700;SDS011;1866;48.374;10.766;2022-12-10T03:22:12;119.95;;;25.45;;
3700;SDS011;1866;48.374;10.766;2022-12-10T03:24:41;116.97;;;24.80;;
3700;SDS011;1866;48.374;10.766;2022-12-10T03:27:11;119.07;;;25.20;;
3700;SDS011;1866;48.374;10.766;2022-12-10T03:29:42;117.80;;;25.10;;
3700;SDS011;1866;48.374;10.766;2022-12-10T03:32:13;119.65;;;26.10;;
3700;SDS011;1866;48.374;10.766;2022-12-10T03:34:42;119.22;;;25.70;;
3700;SDS011;1866;48.374;10.766;2022-12-10T03:37:10;119.38;;;25.63;;
3700;SDS011;1866;48.374;10.766;2022-12-10T03:39:38;119.13;;;25.60;;
3700;SDS011;1866;48.374;10.766;2022-12-10T03:42:05;127.45;;;25.45;;
3700;SDS011;1866;48.374;10.766;2022-12-10T03:44:33;121.28;;;25.85;;
3700;SDS011;1866;48.374;10.766;2022-12-10T03:47:02;119.97;;;26.05;;
3700;SDS011;1866;48.374;10.766;2022-12-10T03:49:33;123.88;;;26.70;;
3700;SDS011;1866;48.374;10.766;2022-12-10T03:52:00;121.72;;;27.17;;
3700;SDS011;1866;48.374;10.766;2022-12-10T03:54:27;118.68;;;24.25;;
3700;SDS011;1866;48.374;10.766;2022-12-10T03:56:54;120.88;;;24.58;;
3700;SDS011;1866;48.374;10.766;2022-12-10T03:59:21;118.30;;;24.33;;
3700;SDS011;1866;48.374;10.766;2022-12-10T04:01:47;119.40;;;24.40;;
3700;SDS011;1866;48.374;10.766;2022-12-10T04:04:16;118.53;;;25.00;;
3700;SDS011;1866;48.374;10.766;2022-12-10T04:06:43;121.85;;;25.30;;
3700;SDS011;1866;48.374;10.766;2022-12-10T04:09:10;122.30;;;25.92;;
3700;SDS011;1866;48.374;10.766;2022-12-10T04:11:37;120.25;;;24.60;;
3700;SDS011;1866;48.374;10.766;2022-12-10T04:14:04;118.70;;;23.27;;
3700;SDS011;1866;48.374;10.766;2022-12-10T04:16:48;119.18;;;25.83;;
3700;SDS011;1866;48.374;10.766;2022-12-10T04:19:17;117.03;;;24.70;;
3700;SDS011;1866;48.374;10.766;2022-12-10T04:21:45;123.88;;;25.48;;
3700;SDS011;1866;48.374;10.766;2022-12-10T04:24:30;119.53;;;25.25;;
3700;SDS011;1866;48.374;10.766;2022-12-10T04:27:16;122.50;;;25.60;;
3700;SDS011;1866;48.374;10.766;2022-12-10T04:29:45;122.28;;;26.40;;
3700;SDS011;1866;48.374;10.766;2022-12-10T04:32:11;118.72;;;25.30;;
3700;SDS011;1866;48.374;10.766;2022-12-10T04:34:40;122.18;;;26.17;;
3700;SDS011;1866;48.374;10.766;2022-12-10T04:37:07;119.68;;;24.10;;
3700;SDS011;1866;48.374;10.766;2022-12-10T04:39:36;122.47;;;24.55;;
3700;SDS011;1866;48.374;10.766;2022-12-10T04:42:03;117.82;;;25.00;;
3700;SDS011;1866;48.374;10.766;2022-12-10T04:44:31;120.60;;;25.02;;
3700;SDS011;1866;48.374;10.766;2022-12-10T04:46:58;121.30;;;24.73;;
3700;SDS011;1866;48.374;10.766;2022-12-10T04:49:25;118.45;;;24.15;;
3700;SDS011;1866;48.374;10.766;2022-12-10T04:51:54;121.00;;;25.63;;
3700;SDS011;1866;48.374;10.766;2022-12-10T04:54:21;120.07;;;25.10;;
3700;SDS011;1866;48.374;10.766;2022-12-10T04:56:49;124.20;;;24.70;;
3700;SDS011;1866;48.374;10.766;2022-12-10T04:59:15;119.22;;;24.67;;
3700;SDS011;1866;48.374;10.766;2022-12-10T05:01:42;122.78;;;25.40;;
3700;SDS011;1866;48.374;10.766;2022-12-10T05:04:10;117.13;;;24.45;;
3700;SDS011;1866;48.374;10.766;2022-12-10T05:06:39;118.45;;;25.38;;
3700;SDS011;1866;48.374;10.766;2022-12-10T05:09:07;121.47;;;25.05;;
3700;SDS011;1866;48.374;10.766;2022-12-10T05:11:36;117.75;;;23.35;;
3700;SDS011;1866;48.374;10.766;2022-12-10T05:14:04;120.68;;;24.95;;
3700;SDS011;1866;48.374;10.766;2022-12-10T05:16:31;122.32;;;24.88;;
3700;SDS011;1866;48.374;10.766;2022-12-10T05:18:59;123.28;;;24.40;;
3700;SDS011;1866;48.374;10.766;2022-12-10T05:21:27;120.88;;;24.60;;
3700;SDS011;1866;48.374;10.766;2022-12-10T05:24:16;121.88;;;24.45;;
3700;SDS011;1866;48.374;10.766;2022-12-10T05:26:43;119.85;;;25.00;;
3700;SDS011;1866;48.374;10.766;2022-12-10T05:29:11;120.20;;;24.30;;
3700;SDS011;1866;48.374;10.766;2022-12-10T05:31:39;117.43;;;23.60;;
3700;SDS011;1866;48.374;10.766;2022-12-10T05:34:06;118.28;;;24.73;;
3700;SDS011;1866;48.374;10.766;2022-12-10T05:36:33;121.53;;;25.02;;
3700;SDS011;1866;48.374;10.766;2022-12-10T05:39:00;123.35;;;25.67;;
3700;SDS011;1866;48.374;10.766;2022-12-10T05:41:29;119.30;;;24.58;;
3700;SDS011;1866;48.374;10.766;2022-12-10T05:43:57;119.72;;;25.05;;
3700;SDS011;1866;48.374;10.766;2022-12-10T05:46:25;124.28;;;25.52;;
3700;SDS011;1866;48.374;10.766;2022-12-10T05:48:56;119.95;;;24.65;;
3700;SDS011;1866;48.374;10.766;2022-12-10T05:51:25;120.18;;;24.25;;
3700;SDS011;1866;48.374;10.766;2022-12-10T05:53:53;123.70;;;24.75;;
3700;SDS011;1866;48.374;10.766;2022-12-10T05:56:21;122.05;;;25.05;;
3700;SDS011;1866;48.374;10.766;2022-12-10T05:58:52;120.80;;;25.45;;
3700;SDS011;1866;48.374;10.766;2022-12-10T06:01:22;118.25;;;24.98;;
3700;SDS011;1866;48.374;10.766;2022-12-10T06:03:51;119.18;;;25.27;;
3700;SDS011;1866;48.374;10.766;2022-12-10T06:06:20;119.50;;;26.08;;
3700;SDS011;1866;48.374;10.766;2022-12-10T06:08:48;121.18;;;25.25;;
3700;SDS011;1866;48.374;10.766;2022-12-10T06:11:15;126.70;;;27.55;;
3700;SDS011;1866;48.374;10.766;2022-12-10T06:13:42;117.53;;;24.98;;
3700;SDS011;1866;48.374;10.766;2022-12-10T06:16:11;122.63;;;26.00;;
3700;SDS011;1866;48.374;10.766;2022-12-10T06:18:39;122.85;;;25.92;;
3700;SDS011;1866;48.374;10.766;2022-12-10T06:21:06;120.22;;;25.10;;
3700;SDS011;1866;48.374;10.766;2022-12-10T06:23:35;122.68;;;26.33;;
3700;SDS011;1866;48.374;10.766;2022-12-10T06:26:03;121.00;;;25.52;;
3700;SDS011;1866;48.374;10.766;2022-12-10T06:28:31;123.53;;;25.65;;
3700;SDS011;1866;48.374;10.766;2022-12-10T06:30:58;124.07;;;25.92;;
3700;SDS011;1866;48.374;10.766;2022-12-10T06:33:27;121.85;;;25.98;;
3700;SDS011;1866;48.374;10.766;2022-12-10T06:35:55;121.75;;;25.95;;
3700;SDS011;1866;48.374;10.766;2022-12-10T06:38:22;118.10;;;25.23;;
3700;SDS011;1866;48.374;10.766;2022-12-10T06:40:49;120.70;;;25.35;;
3700;SDS011;1866;48.374;10.766;2022-12-10T06:43:17;129.15;;;25.55;;
3700;SDS011;1866;48.374;10.766;2022-12-10T06:45:44;120.72;;;26.23;;
3700;SDS011;1866;48.374;10.766;2022-12-10T06:48:12;121.70;;;24.10;;
3700;SDS011;1866;48.374;10.766;2022-12-10T06:50:40;119.32;;;23.92;;
3700;SDS011;1866;48.374;10.766;2022-12-10T06:53:07;125.53;;;25.13;;
3700;SDS011;1866;48.374;10.766;2022-12-10T06:55:35;122.28;;;25.38;;
3700;SDS011;1866;48.374;10.766;2022-12-10T06:58:02;124.20;;;24.90;;
3700;SDS011;1866;48.374;10.766;2022-12-10T07:00:29;121.75;;;24.70;;
3700;SDS011;1866;48.374;10.766;2022-12-10T07:02:56;120.13;;;24.42;;
3700;SDS011;1866;48.374;10.766;2022-12-10T07:05:24;119.88;;;23.50;;
3700;SDS011;1866;48.374;10.766;2022-12-10T07:07:52;121.03;;;24.73;;
3700;SDS011;1866;48.374;10.766;2022-12-10T07:10:19;120.10;;;25.20;;
3700;SDS011;1866;48.374;10.766;2022-12-10T07:12:46;120.85;;;24.45;;
3700;SDS011;1866;48.374;10.766;2022-12-10T07:15:12;121.97;;;23.88;;
3700;SDS011;1866;48.374;10.766;2022-12-10T07:17:39;120.28;;;25.27;;
3700;SDS011;1866;48.374;10.766;2022-12-10T07:20:06;121.00;;;25.20;;
3700;SDS011;1866;48.374;10.766;2022-12-10T07:22:34;122.53;;;26.27;;
3700;SDS011;1866;48.374;10.766;2022-12-10T07:25:02;121.82;;;25.80;;
3700;SDS011;1866;48.374;10.766;2022-12-10T07:27:29;124.05;;;26.23;;
3700;SDS011;1866;48.374;10.766;2022-12-10T07:29:57;120.47;;;23.05;;
3700;SDS011;1866;48.374;10.766;2022-12-10T07:32:24;120.63;;;25.08;;
3700;SDS011;1866;48.374;10.766;2022-12-10T07:34:52;121.03;;;24.50;;
3700;SDS011;1866;48.374;10.766;2022-12-10T07:37:19;119.47;;;24.05;;
3700;SDS011;1866;48.374;10.766;2022-12-10T07:39:46;123.28;;;23.98;;
3700;SDS011;1866;48.374;10.766;2022-12-10T07:42:14;116.82;;;22.80;;
3700;SDS011;1866;48.374;10.766;2022-12-10T07:44:41;122.70;;;22.80;;
3700;SDS011;1866;48.374;10.766;2022-12-10T07:47:08;120.50;;;22.95;;
3700;SDS011;1866;48.374;10.766;2022-12-10T07:49:36;122.57;;;24.48;;
3700;SDS011;1866;48.374;10.766;2022-12-10T07:52:04;117.38;;;24.17;;
3700;SDS011;1866;48.374;10.766;2022-12-10T07:54:31;124.28;;;23.92;;
3700;SDS011;1866;48.374;10.766;2022-12-10T07:56:59;124.13;;;24.77;;
3700;SDS011;1866;48.374;10.766;2022-12-10T07:59:27;121.53;;;24.40;;
3700;SDS011;1866;48.374;10.766;2022-12-10T08:01:54;122.07;;;23.15;;
3700;SDS011;1866;48.374;10.766;2022-12-10T08:04:21;123.10;;;24.58;;
3700;SDS011;1866;48.374;10.766;2022-12-10T08:06:48;120.43;;;23.50;;
3700;SDS011;1866;48.374;10.766;2022-12-10T08:09:15;120.38;;;24.90;;
3700;SDS011;1866;48.374;10.766;2022-12-10T08:11:42;128.57;;;24.27;;
3700;SDS011;1866;48.374;10.766;2022-12-10T08:14:09;124.78;;;25.02;;
3700;SDS011;1866;48.374;10.766;2022-12-10T08:16:38;128.00;;;26.63;;
3700;SDS011;1866;48.374;10.766;2022-12-10T08:19:04;125.00;;;25.30;;
3700;SDS011;1866;48.374;10.766;2022-12-10T08:21:32;123.88;;;25.23;;
3700;SDS011;1866;48.374;10.766;2022-12-10T08:23:59;124.47;;;27.80;;
3700;SDS011;1866;48.374;10.766;2022-12-10T08:26:27;123.55;;;26.17;;
3700;SDS011;1866;48.374;10.766;2022-12-10T08:28:55;123.95;;;25.35;;
3700;SDS011;1866;48.374;10.766;2022-12-10T08:31:23;127.55;;;25.50;;
3700;SDS011;1866;48.374;10.766;2022-12-10T08:33:54;122.35;;;24.30;;
3700;SDS011;1866;48.374;10.766;2022-12-10T08:36:21;124.32;;;24.88;;
3700;SDS011;1866;48.374;10.766;2022-12-10T08:38:48;122.45;;;25.13;;
3700;SDS011;1866;48.374;10.766;2022-12-10T08:41:15;123.53;;;25.60;;
3700;SDS011;1866;48.374;10.766;2022-12-10T08:43:43;125.97;;;26.20;;
3700;SDS011;1866;48.374;10.766;2022-12-10T08:46:11;126.53;;;24.48;;
3700;SDS011;1866;48.374;10.766;2022-12-10T08:48:39;119.95;;;23.08;;
3700;SDS011;1866;48.374;10.766;2022-12-10T08:51:08;121.57;;;24.48;;
3700;SDS011;1866;48.374;10.766;2022-12-10T08:53:36;120.75;;;22.15;;
3700;SDS011;1866;48.374;10.766;2022-12-10T08:56:03;123.38;;;23.25;;
3700;SDS011;1866;48.374;10.766;2022-12-10T08:58:30;128.60;;;24.30;;
3700;SDS011;1866;48.374;10.766;2022-12-10T09:00:57;120.97;;;23.83;;
3700;SDS011;1866;48.374;10.766;2022-12-10T09:03:26;123.05;;;22.95;;
3700;SDS011;1866;48.374;10.766;2022-12-10T09:05:53;127.07;;;22.85;;
3700;SDS011;1866;48.374;10.766;2022-12-10T09:08:21;120.13;;;22.20;;
3700;SDS011;1866;48.374;10.766;2022-12-10T09:10:48;121.30;;;22.85;;
3700;SDS011;1866;48.374;10.766;2022-12-10T09:13:15;117.82;;;22.90;;
3700;SDS011;1866;48.374;10.766;2022-12-10T09:15:48;121.57;;;23.42;;
3700;SDS011;1866;48.374;10.766;2022-12-10T09:18:15;117.63;;;22.38;;
3700;SDS011;1866;48.374;10.766;2022-12-10T09:20:42;120.82;;;22.70;;
3700;SDS011;1866;48.374;10.766;2022-12-10T09:23:09;124.97;;;25.08;;
3700;SDS011;1866;48.374;10.766;2022-12-10T09:25:37;119.47;;;20.98;;
3700;SDS011;1866;48.374;10.766;2022-12-10T09:28:04;122.10;;;23.63;;
3700;SDS011;1866;48.374;10.766;2022-12-10T09:30:31;119.05;;;22.70;;
3700;SDS011;1866;48.374;10.766;2022-12-10T09:32:58;124.05;;;24.75;;
3700;SDS011;1866;48.374;10.766;2022-12-10T09:35:26;120.35;;;21.88;;
3700;SDS011;1866;48.374;10.766;2022-12-10T09:37:53;120.38;;;21.60;;
3700;SDS011;1866;48.374;10.766;2022-12-10T09:40:21;118.35;;;21.92;;
3700;SDS011;1866;48.374;10.766;2022-12-10T09:42:57;117.53;;;20.90;;
3700;SDS011;1866;48.374;10.766;2022-12-10T09:45:30;118.65;;;20.45;;
3700;SDS011;1866;48.374;10.766;2022-12-10T09:48:05;117.05;;;21.52;;
3700;SDS011;1866;48.374;10.766;2022-12-10T09:50:44;121.28;;;21.55;;
3700;SDS011;1866;48.374;10.766;2022-12-10T09:53:19;122.25;;;21.55;;
3700;SDS011;1866;48.374;10.766;2022-12-10T09:55:48;124.05;;;21.25;;
3700;SDS011;1866;48.374;10.766;2022-12-10T09:58:17;117.78;;;22.15;;
3700;SDS011;1866;48.374;10.766;2022-12-10T10:00:46;117.80;;;20.80;;
3700;SDS011;1866;48.374;10.766;2022-12-10T10:03:15;115.57;;;19.40;;
3700;SDS011;1866;48.374;10.766;2022-12-10T10:05:43;119.20;;;20.77;;
3700;SDS011;1866;48.374;10.766;2022-12-10T10:08:13;117.13;;;21.05;;
3700;SDS011;1866;48.374;10.766;2022-12-10T10:10:45;120.05;;;21.63;;
3700;SDS011;1866;48.374;10.766;2022-12-10T10:13:14;118.97;;;22.40;;
3700;SDS011;1866;48.374;10.766;2022-12-10T10:15:49;116.18;;;20.85;;
3700;SDS011;1866;48.374;10.766;2022-12-10T10:18:20;120.47;;;22.20;;
3700;SDS011;1866;48.374;10.766;2022-12-10T10:20:53;124.10;;;23.23;;
3700;SDS011;1866;48.374;10.766;2022-12-10T10:23:20;117.03;;;20.88;;
3700;SDS011;1866;48.374;10.766;2022-12-10T10:25:47;121.05;;;21.65;;
3700;SDS011;1866;48.374;10.766;2022-12-10T10:28:16;115.70;;;21.33;;
3700;SDS011;1866;48.374;10.766;2022-12-10T10:30:47;119.82;;;24.40;;
3700;SDS011;1866;48.374;10.766;2022-12-10T10:33:16;122.93;;;23.75;;
3700;SDS011;1866;48.374;10.766;2022-12-10T10:35:44;119.55;;;22.65;;
3700;SDS011;1866;48.374;10.766;2022-12-10T10:38:14;116.82;;;22.05;;
3700;SDS011;1866;48.374;10.766;2022-12-10T10:40:46;118.82;;;22.58;;
3700;SDS011;1866;48.374;10.766;2022-12-10T10:43:23;122.18;;;22.45;;
3700;SDS011;1866;48.374;10.766;2022-12-10T10:45:52;119.45;;;20.13;;
3700;SDS011;1866;48.374;10.766;2022-12-10T10:48:23;118.35;;;20.95;;
3700;SDS011;1866;48.374;10.766;2022-12-10T10:50:52;121.47;;;22.02;;
3700;SDS011;1866;48.374;10.766;2022-12-10T10:53:25;122.18;;;21.33;;
3700;SDS011;1866;48.374;10.766;2022-12-10T10:55:54;123.20;;;21.52;;
3700;SDS011;1866;48.374;10.766;2022-12-10T10:58:24;116.60;;;20.63;;
3700;SDS011;1866;48.374;10.766;2022-12-10T11:00:53;121.72;;;21.42;;
3700;SDS011;1866;48.374;10.766;2022-12-10T11:03:25;119.40;;;21.98;;
3700;SDS011;1866;48.374;10.766;2022-12-10T11:05:53;116.80;;;20.98;;
3700;SDS011;1866;48.374;10.766;2022-12-10T11:08:21;115.13;;;20.92;;
3700;SDS011;1866;48.374;10.766;2022-12-10T11:10:54;117.88;;;21.80;;
3700;SDS011;1866;48.374;10.766;2022-12-10T11:13:28;118.35;;;21.75;;
3700;SDS011;1866;48.374;10.766;2022-12-10T11:15:58;117.90;;;20.80;;
3700;SDS011;1866;48.374;10.766;2022-12-10T11:18:30;117.50;;;21.70;;
3700;SDS011;1866;48.374;10.766;2022-12-10T11:20:59;120.28;;;22.50;;
3700;SDS011;1866;48.374;10.766;2022-12-10T11:23:28;118.22;;;22.70;;
3700;SDS011;1866;48.374;10.766;2022-12-10T11:25:59;118.78;;;23.13;;
3700;SDS011;1866;48.374;10.766;2022-12-10T11:28:36;118.32;;;22.60;;
3700;SDS011;1866;48.374;10.766;2022-12-10T11:31:13;118.18;;;22.58;;
3700;SDS011;1866;48.374;10.766;2022-12-10T11:33:58;122.20;;;22.75;;
3700;SDS011;1866;48.374;10.766;2022-12-10T11:36:33;120.95;;;23.15;;
3700;SDS011;1866;48.374;10.766;2022-12-10T11:39:10;123.53;;;22.70;;
3700;SDS011;1866;48.374;10.766;2022-12-10T11:41:49;119.53;;;22.70;;
3700;SDS011;1866;48.374;10.766;2022-12-10T11:44:25;119.53;;;23.38;;
3700;SDS011;1866;48.374;10.766;2022-12-10T11:47:06;118.47;;;24.00;;
3700;SDS011;1866;48.374;10.766;2022-12-10T11:49:56;120.10;;;23.98;;
3700;SDS011;1866;48.374;10.766;2022-12-10T11:52:35;120.93;;;23.27;;
3700;SDS011;1866;48.374;10.766;2022-12-10T11:55:12;118.90;;;24.08;;
3700;SDS011;1866;48.374;10.766;2022-12-10T11:57:51;127.78;;;24.63;;
3700;SDS011;1866;48.374;10.766;2022-12-10T12:00:31;120.15;;;23.33;;
3700;SDS011;1866;48.374;10.766;2022-12-10T12:03:10;117.97;;;22.52;;
3700;SDS011;1866;48.374;10.766;2022-12-10T12:06:10;115.40;;;21.70;;
3700;SDS011;1866;48.374;10.766;2022-12-10T12:08:48;119.90;;;22.83;;
3700;SDS011;1866;48.374;10.766;2022-12-10T12:11:27;119.50;;;23.52;;
3700;SDS011;1866;48.374;10.766;2022-12-10T12:13:59;120.10;;;23.15;;
3700;SDS011;1866;48.374;10.766;2022-12-10T12:16:35;121.28;;;22.63;;
3700;SDS011;1866;48.374;10.766;2022-12-10T12:19:09;121.53;;;22.80;;
3700;SDS011;1866;48.374;10.766;2022-12-10T12:21:40;128.18;;;24.55;;
3700;SDS011;1866;48.374;10.766;2022-12-10T12:24:09;121.45;;;23.40;;
3700;SDS011;1866;48.374;10.766;2022-12-10T12:26:42;124.18;;;23.20;;
3700;SDS011;1866;48.374;10.766;2022-12-10T12:29:13;127.07;;;24.25;;
3700;SDS011;1866;48.374;10.766;2022-12-10T12:31:49;123.55;;;23.55;;
3700;SDS011;1866;48.374;10.766;2022-12-10T12:34:24;121.72;;;23.85;;
3700;SDS011;1866;48.374;10.766;2022-12-10T12:37:00;126.70;;;24.38;;
3700;SDS011;1866;48.374;10.766;2022-12-10T12:39:28;121.55;;;25.27;;
3700;SDS011;1866;48.374;10.766;2022-12-10T12:42:06;122.72;;;24.50;;
3700;SDS011;1866;48.374;10.766;2022-12-10T12:44:45;125.18;;;25.92;;
3700;SDS011;1866;48.374;10.766;2022-12-10T12:50:11;121.75;;;24.90;;
3700;SDS011;1866;48.374;10.766;2022-12-10T12:52:51;117.28;;;24.48;;
3700;SDS011;1866;48.374;10.766;2022-12-10T12:55:20;121.70;;;26.58;;
3700;SDS011;1866;48.374;10.766;2022-12-10T12:57:53;122.78;;;27.17;;
3700;SDS011;1866;48.374;10.766;2022-12-10T13:00:37;122.18;;;25.95;;
3700;SDS011;1866;48.374;10.766;2022-12-10T13:03:17;121.15;;;24.75;;
3700;SDS011;1866;48.374;10.766;2022-12-10T13:05:53;117.60;;;23.42;;
3700;SDS011;1866;48.374;10.766;2022-12-10T13:08:24;124.22;;;23.92;;
3700;SDS011;1866;48.374;10.766;2022-12-10T13:10:59;120.68;;;23.95;;
3700;SDS011;1866;48.374;10.766;2022-12-10T13:13:41;116.68;;;22.75;;
3700;SDS011;1866;48.374;10.766;2022-12-10T13:16:46;118.97;;;23.63;;
3700;SDS011;1866;48.374;10.766;2022-12-10T13:19:22;117.00;;;23.35;;
3700;SDS011;1866;48.374;10.766;2022-12-10T13:22:01;115.32;;;21.98;;
3700;SDS011;1866;48.374;10.766;2022-12-10T13:27:30;115.68;;;22.55;;
3700;SDS011;1866;48.374;10.766;2022-12-10T13:30:00;115.68;;;22.98;;
3700;SDS011;1866;48.374;10.766;2022-12-10T13:32:42;122.07;;;23.70;;
3700;SDS011;1866;48.374;10.766;2022-12-10T13:37:57;119.30;;;24.60;;
3700;SDS011;1866;48.374;10.766;2022-12-10T13:40:39;118.80;;;24.35;;
3700;SDS011;1866;48.374;10.766;2022-12-10T13:43:26;122.28;;;25.48;;
3700;SDS011;1866;48.374;10.766;2022-12-10T13:46:26;118.25;;;23.73;;
3700;SDS011;1866;48.374;10.766;2022-12-10T13:48:57;117.18;;;23.55;;
3700;SDS011;1866;48.374;10.766;2022-12-10T13:57:12;121.22;;;24.83;;
3700;SDS011;1866;48.374;10.766;2022-12-10T13:59:51;124.43;;;26.50;;
3700;SDS011;1866;48.374;10.766;2022-12-10T14:05:27;121.47;;;25.38;;
3700;SDS011;1866;48.374;10.766;2022-12-10T14:08:10;121.07;;;24.88;;
3700;SDS011;1866;48.374;10.766;2022-12-10T14:10:42;119.03;;;24.52;;
3700;SDS011;1866;48.374;10.766;2022-12-10T14:13:11;117.72;;;24.20;;
3700;SDS011;1866;48.374;10.766;2022-12-10T14:15:41;123.30;;;25.02;;
3700;SDS011;1866;48.374;10.766;2022-12-10T14:18:17;120.35;;;24.33;;
3700;SDS011;1866;48.374;10.766;2022-12-10T14:20:45;118.55;;;24.10;;
3700;SDS011;1866;48.374;10.766;2022-12-10T14:23:22;124.50;;;25.40;;
3700;SDS011;1866;48.374;10.766;2022-12-10T14:26:04;119.30;;;24.58;;
3700;SDS011;1866;48.374;10.766;2022-12-10T14:28:36;124.47;;;25.60;;
3700;SDS011;1866;48.374;10.766;2022-12-10T14:31:06;122.82;;;25.15;;
3700;SDS011;1866;48.374;10.766;2022-12-10T14:33:39;118.95;;;24.17;;
3700;SDS011;1866;48.374;10.766;2022-12-10T14:36:12;118.85;;;23.92;;
3700;SDS011;1866;48.374;10.766;2022-12-10T14:38:46;117.80;;;22.73;;
3700;SDS011;1866;48.374;10.766;2022-12-10T14:41:15;118.57;;;23.58;;
3700;SDS011;1866;48.374;10.766;2022-12-10T14:43:46;118.30;;;22.45;;
3700;SDS011;1866;48.374;10.766;2022-12-10T14:46:14;117.82;;;23.30;;
3700;SDS011;1866;48.374;10.766;2022-12-10T14:48:46;118.90;;;23.88;;
3700;SDS011;1866;48.374;10.766;2022-12-10T14:51:15;117.95;;;23.85;;
3700;SDS011;1866;48.374;10.766;2022-12-10T14:53:44;118.35;;;23.65;;
3700;SDS011;1866;48.374;10.766;2022-12-10T14:56:14;117.28;;;25.00;;
3700;SDS011;1866;48.374;10.766;2022-12-10T14:58:47;120.30;;;26.10;;